createdAt,value
2018-11-13T00:00:45.146Z,19.97
2018-11-13T00:03:13.661Z,20.37
2018-11-13T00:05:42.123Z,20.17
2018-11-13T00:08:10.581Z,20.47
2018-11-13T00:10:39.081Z,22.47
2018-11-13T00:13:08.072Z,19.53
2018-11-13T00:15:36.565Z,20.03
2018-11-13T00:18:05.543Z,21.07
2018-11-13T00:20:34.058Z,19.80
2018-11-13T00:23:02.527Z,19.90
2018-11-13T00:25:31.059Z,20.87
2018-11-13T00:27:59.543Z,20.87
2018-11-13T00:30:29.003Z,20.67
2018-11-13T00:32:57.709Z,20.47
2018-11-13T00:35:26.188Z,20.83
2018-11-13T00:37:54.665Z,21.30
2018-11-13T00:40:23.181Z,20.30
2018-11-13T00:42:51.705Z,20.43
2018-11-13T00:45:20.245Z,20.87
2018-11-13T00:47:48.950Z,24.60
2018-11-13T00:50:19.055Z,22.20
2018-11-13T00:52:48.075Z,21.33
2018-11-13T00:55:16.681Z,23.47
2018-11-13T00:57:45.471Z,24.27
2018-11-13T01:00:16.523Z,24.10
2018-11-13T01:02:45.381Z,24.47
2018-11-13T01:05:15.296Z,23.53
2018-11-13T01:07:45.184Z,21.30
2018-11-13T01:10:14.563Z,23.83
2018-11-13T01:12:44.018Z,25.87
2018-11-13T01:15:14.873Z,23.73
2018-11-13T01:17:44.377Z,29.97
2018-11-13T01:20:13.673Z,31.63
2018-11-13T01:22:42.151Z,25.13
2018-11-13T01:25:11.735Z,54.30
2018-11-13T01:27:40.543Z,51.53
2018-11-13T01:30:10.641Z,41.00
2018-11-13T01:32:40.137Z,56.73
2018-11-13T01:35:10.351Z,52.17
2018-11-13T01:37:38.891Z,58.57
2018-11-13T01:40:10.026Z,27.87
2018-11-13T01:42:38.921Z,21.80
2018-11-13T01:45:09.126Z,20.83
2018-11-13T01:47:37.697Z,21.57
2018-11-13T01:50:06.501Z,25.63
2018-11-13T01:52:35.676Z,25.20
2018-11-13T01:55:04.099Z,23.83
2018-11-13T01:57:32.678Z,27.43
2018-11-13T02:00:01.161Z,25.53
2018-11-13T02:02:29.655Z,22.27
2018-11-13T02:04:58.129Z,24.40
2018-11-13T02:07:27.015Z,22.93
2018-11-13T02:09:55.498Z,26.10
2018-11-13T02:12:23.963Z,26.23
2018-11-13T02:14:52.423Z,25.40
2018-11-13T02:17:20.952Z,20.73
2018-11-13T02:19:49.607Z,20.10
2018-11-13T02:22:18.175Z,20.83
2018-11-13T02:24:47.118Z,21.80
2018-11-13T02:27:15.630Z,21.53
2018-11-13T02:29:44.135Z,23.10
2018-11-13T02:32:12.608Z,22.27
2018-11-13T02:34:41.123Z,21.53
2018-11-13T02:37:09.608Z,23.23
2018-11-13T02:39:38.103Z,24.97
2018-11-13T02:42:06.634Z,22.87
2018-11-13T02:44:35.351Z,24.10
2018-11-13T02:47:03.813Z,23.17
2018-11-13T02:49:32.290Z,23.43
2018-11-13T02:52:00.829Z,23.60
2018-11-13T02:54:29.307Z,25.10
2018-11-13T02:56:57.945Z,23.13
2018-11-13T02:59:27.073Z,23.13
2018-11-13T03:01:55.538Z,22.63
2018-11-13T03:04:24.783Z,24.80
2018-11-13T03:06:53.382Z,23.87
2018-11-13T03:09:22.428Z,23.33
2018-11-13T03:11:50.949Z,21.67
2018-11-13T03:14:19.461Z,22.83
2018-11-13T03:16:48.002Z,21.37
2018-11-13T03:19:16.523Z,20.63
2018-11-13T03:21:46.075Z,20.47
2018-11-13T03:24:14.924Z,22.20
2018-11-13T03:26:43.737Z,23.63
2018-11-13T03:29:12.255Z,21.47
2018-11-13T03:31:40.924Z,22.30
2018-11-13T03:34:09.603Z,22.40
2018-11-13T03:36:38.683Z,25.67
2018-11-13T03:39:08.609Z,26.93
2018-11-13T03:41:37.699Z,25.77
2018-11-13T03:44:07.122Z,23.00
2018-11-13T03:46:35.609Z,21.93
2018-11-13T03:49:04.151Z,23.93
2018-11-13T03:51:32.748Z,22.53
2018-11-13T03:54:01.488Z,21.83
2018-11-13T03:56:30.228Z,21.20
2018-11-13T03:58:58.908Z,19.87
2018-11-13T04:01:27.397Z,19.17
2018-11-13T04:03:55.871Z,16.67
2018-11-13T04:06:24.396Z,18.43
2018-11-13T04:08:52.888Z,19.60
2018-11-13T04:11:21.448Z,16.17
2018-11-13T04:13:49.972Z,15.50
2018-11-13T04:16:18.455Z,14.70
2018-11-13T04:18:46.923Z,14.67
2018-11-13T04:21:15.485Z,16.67
2018-11-13T04:23:44.057Z,16.03
2018-11-13T04:26:12.698Z,14.60
2018-11-13T04:28:41.732Z,15.30
2018-11-13T04:31:10.210Z,14.93
2018-11-13T04:33:38.698Z,16.93
2018-11-13T04:36:07.164Z,16.40
2018-11-13T04:38:36.630Z,25.10
2018-11-13T04:41:06.310Z,31.60
2018-11-13T04:43:35.542Z,31.90
2018-11-13T04:46:04.046Z,41.50
2018-11-13T04:48:32.543Z,36.23
2018-11-13T04:51:01.040Z,50.10
2018-11-13T04:53:30.181Z,50.10
2018-11-13T04:55:58.682Z,28.93
2018-11-13T04:58:27.156Z,13.07
2018-11-13T05:00:55.841Z,10.33
2018-11-13T05:03:24.353Z,13.70
2018-11-13T05:05:53.013Z,10.30
2018-11-13T05:08:21.651Z,12.67
2018-11-13T05:10:50.148Z,11.30
2018-11-13T05:13:18.639Z,10.87
2018-11-13T05:15:47.702Z,10.67
2018-11-13T05:18:16.222Z,8.90
2018-11-13T05:20:44.719Z,8.30
2018-11-13T05:23:13.375Z,8.50
2018-11-13T05:25:42.286Z,9.90
2018-11-13T05:28:10.781Z,7.40
2018-11-13T05:30:39.281Z,9.43
2018-11-13T05:33:07.747Z,9.27
2018-11-13T05:35:36.241Z,8.90
2018-11-13T05:38:04.997Z,8.97
2018-11-13T05:40:33.547Z,11.97
2018-11-13T05:43:02.037Z,10.63
2018-11-13T05:45:30.529Z,11.60
2018-11-13T05:47:59.456Z,11.00
2018-11-13T05:50:28.033Z,8.77
2018-11-13T05:52:56.674Z,9.30
2018-11-13T05:55:25.187Z,8.53
2018-11-13T05:57:53.815Z,8.00
2018-11-13T06:00:29.500Z,8.93
2018-11-13T06:02:58.043Z,11.70
2018-11-13T06:05:26.615Z,7.27
2018-11-13T06:07:55.134Z,5.80
2018-11-13T06:10:23.677Z,5.57
2018-11-13T06:12:52.225Z,6.97
2018-11-13T06:15:21.119Z,5.53
2018-11-13T06:17:50.263Z,5.90
2018-11-13T06:20:18.932Z,6.00
2018-11-13T06:22:47.422Z,5.60
2018-11-13T06:25:17.234Z,5.13
2018-11-13T06:27:46.834Z,5.80
2018-11-13T06:30:17.764Z,5.37
2018-11-13T06:32:46.987Z,5.13
2018-11-13T06:35:15.447Z,5.27
2018-11-13T06:37:44.224Z,4.70
2018-11-13T06:40:12.830Z,6.30
2018-11-13T06:42:41.699Z,5.67
2018-11-13T06:45:13.572Z,5.07
2018-11-13T06:47:44.124Z,4.67
2018-11-13T06:50:12.926Z,4.90
2018-11-13T06:52:41.570Z,6.30
2018-11-13T06:55:15.459Z,6.20
2018-11-13T06:57:43.953Z,5.37
2018-11-13T07:00:12.670Z,5.70
2018-11-13T07:02:41.471Z,6.00
2018-11-13T07:05:12.000Z,7.87
2018-11-13T07:07:41.096Z,8.03
2018-11-13T07:10:11.631Z,8.67
2018-11-13T07:12:41.460Z,7.77
2018-11-13T07:15:11.883Z,6.30
2018-11-13T07:17:40.963Z,6.40
2018-11-13T07:20:09.496Z,7.20
2018-11-13T07:22:38.208Z,7.03
2018-11-13T07:25:06.764Z,10.17
2018-11-13T07:27:42.348Z,14.87
2018-11-13T07:30:12.130Z,13.37
2018-11-13T07:32:41.144Z,11.47
2018-11-13T07:35:11.151Z,9.27
2018-11-13T07:37:41.095Z,8.93
2018-11-13T07:40:09.964Z,6.60
2018-11-13T07:42:38.502Z,7.50
2018-11-13T07:45:09.420Z,7.13
2018-11-13T07:47:38.280Z,6.03
2018-11-13T07:50:08.472Z,6.43
2018-11-13T07:52:37.328Z,6.40
2018-11-13T07:55:06.480Z,4.60
2018-11-13T07:57:35.308Z,6.00
2018-11-13T08:00:03.982Z,4.40
2018-11-13T08:02:32.744Z,4.20
2018-11-13T08:05:01.231Z,4.10
2018-11-13T08:07:29.781Z,3.60
2018-11-13T08:09:58.720Z,3.80
2018-11-13T08:12:27.282Z,3.47
2018-11-13T08:14:55.782Z,3.80
2018-11-13T08:17:24.291Z,3.60
2018-11-13T08:19:52.819Z,4.03
2018-11-13T08:22:22.233Z,3.07
2018-11-13T08:24:50.737Z,3.23
2018-11-13T08:27:19.629Z,3.13
2018-11-13T08:29:48.159Z,3.67
2018-11-13T08:32:16.645Z,3.60
2018-11-13T08:34:45.197Z,3.03
2018-11-13T08:37:13.698Z,2.47
2018-11-13T08:39:42.187Z,2.30
2018-11-13T08:42:10.718Z,2.47
2018-11-13T08:44:39.276Z,2.10
2018-11-13T08:47:07.915Z,2.47
2018-11-13T08:49:36.502Z,3.00
2018-11-13T08:52:05.464Z,2.90
2018-11-13T08:54:33.978Z,3.27
2018-11-13T08:57:02.616Z,2.93
2018-11-13T08:59:31.160Z,2.70
2018-11-13T09:01:59.587Z,2.87
2018-11-13T09:04:28.060Z,3.43
2018-11-13T09:06:56.537Z,3.90
2018-11-13T09:09:25.235Z,3.47
2018-11-13T09:11:53.826Z,4.10
2018-11-13T09:14:22.507Z,3.20
2018-11-13T09:16:51.033Z,3.13
2018-11-13T09:19:20.064Z,3.80
2018-11-13T09:21:48.613Z,3.80
2018-11-13T09:24:17.080Z,3.60
2018-11-13T09:26:45.628Z,3.70
2018-11-13T09:29:14.911Z,3.60
2018-11-13T09:31:43.522Z,3.77
2018-11-13T09:34:12.076Z,3.00
2018-11-13T09:36:40.763Z,4.63
2018-11-13T09:39:11.044Z,3.93
2018-11-13T09:41:39.819Z,3.23
2018-11-13T09:44:08.307Z,3.60
2018-11-13T09:46:36.937Z,3.70
2018-11-13T09:49:06.030Z,4.50
2018-11-13T09:51:34.534Z,3.60
2018-11-13T09:54:03.032Z,3.20
2018-11-13T09:56:31.634Z,3.47
2018-11-13T09:59:00.193Z,3.20
2018-11-13T10:01:29.149Z,3.60
2018-11-13T10:03:58.117Z,4.10
2018-11-13T10:06:26.138Z,3.93
2018-11-13T10:08:54.752Z,3.80
2018-11-13T10:11:23.310Z,3.90
2018-11-13T10:13:52.154Z,4.20
2018-11-13T10:16:20.606Z,3.73
2018-11-13T10:18:49.129Z,3.50
2018-11-13T10:21:17.688Z,3.67
2018-11-13T10:23:46.332Z,3.70
2018-11-13T10:26:15.105Z,3.43
2018-11-13T10:28:43.526Z,3.90
2018-11-13T10:31:12.066Z,3.60
2018-11-13T10:33:40.875Z,3.30
2018-11-13T10:36:09.508Z,3.23
2018-11-13T10:38:38.038Z,3.23
2018-11-13T10:41:07.237Z,3.13
2018-11-13T10:43:35.670Z,3.13
2018-11-13T10:46:04.489Z,3.60
2018-11-13T10:48:32.979Z,3.37
2018-11-13T10:51:01.500Z,3.10
2018-11-13T10:53:29.993Z,3.40
2018-11-13T10:55:58.697Z,2.40
2018-11-13T10:58:27.262Z,2.03
2018-11-13T11:01:03.974Z,2.60
2018-11-13T11:03:37.727Z,2.27
2018-11-13T11:06:06.333Z,2.50
2018-11-13T11:08:35.018Z,2.33
2018-11-13T11:11:03.538Z,2.23
2018-11-13T11:13:32.121Z,2.40
2018-11-13T11:16:00.562Z,2.40
2018-11-13T11:18:29.128Z,2.23
2018-11-13T11:20:57.608Z,2.80
2018-11-13T11:23:26.150Z,2.63
2018-11-13T11:25:54.646Z,2.50
2018-11-13T11:28:23.368Z,2.10
2018-11-13T11:30:51.893Z,2.63
2018-11-13T11:33:20.441Z,2.47
2018-11-13T11:35:48.975Z,2.40
2018-11-13T11:38:17.577Z,2.47
2018-11-13T11:40:46.501Z,2.93
2018-11-13T11:43:15.009Z,2.80
2018-11-13T11:45:43.496Z,3.07
2018-11-13T11:48:12.004Z,3.40
2018-11-13T11:50:40.888Z,2.67
2018-11-13T11:53:09.410Z,2.60
2018-11-13T11:55:37.892Z,2.63
2018-11-13T11:58:06.392Z,2.77
2018-11-13T12:00:35.691Z,2.83
2018-11-13T12:03:04.540Z,2.70
2018-11-13T12:05:33.028Z,2.73
2018-11-13T12:08:01.535Z,2.47
2018-11-13T12:10:30.066Z,2.33
2018-11-13T12:12:58.629Z,2.33
2018-11-13T12:15:27.101Z,2.30
2018-11-13T12:17:55.619Z,1.93
2018-11-13T12:20:24.162Z,2.30
2018-11-13T12:22:52.799Z,2.80
2018-11-13T12:25:21.466Z,2.40
2018-11-13T12:27:50.162Z,2.33
2018-11-13T12:30:19.995Z,2.23
2018-11-13T12:32:49.504Z,2.53
2018-11-13T12:35:19.092Z,2.70
2018-11-13T12:37:47.769Z,2.13
2018-11-13T12:40:17.683Z,2.60
2018-11-13T12:42:47.226Z,2.63
2018-11-13T12:45:16.015Z,2.63
2018-11-13T12:47:44.999Z,2.00
2018-11-13T12:50:14.687Z,2.30
2018-11-13T12:52:43.183Z,2.00
2018-11-13T12:55:16.192Z,2.53
2018-11-13T12:57:44.857Z,1.70
2018-11-13T13:00:19.341Z,2.27
2018-11-13T13:02:47.835Z,2.40
2018-11-13T13:05:16.325Z,1.80
2018-11-13T13:07:44.917Z,1.93
2018-11-13T13:10:14.792Z,2.30
2018-11-13T13:12:43.410Z,1.77
2018-11-13T13:15:13.852Z,1.60
2018-11-13T13:17:42.712Z,1.47
2018-11-13T13:20:14.581Z,1.70
2018-11-13T13:22:43.784Z,1.73
2018-11-13T13:25:14.089Z,1.60
2018-11-13T13:27:42.653Z,1.83
2018-11-13T13:30:14.677Z,1.67
2018-11-13T13:32:43.456Z,1.77
2018-11-13T13:36:14.780Z,1.60
2018-11-13T13:38:43.442Z,1.70
2018-11-13T13:41:11.886Z,2.27
2018-11-13T13:43:40.401Z,2.83
2018-11-13T13:46:09.122Z,2.10
2018-11-13T13:48:37.652Z,1.60
2018-11-13T13:51:06.453Z,2.17
2018-11-13T13:53:34.996Z,1.80
2018-11-13T13:56:03.580Z,2.33
2018-11-13T13:58:32.062Z,1.83
2018-11-13T14:01:00.734Z,2.20
2018-11-13T14:03:29.376Z,2.17
2018-11-13T14:05:57.927Z,2.20
2018-11-13T14:08:26.477Z,2.40
2018-11-13T14:10:55.036Z,2.33
2018-11-13T14:13:23.531Z,2.63
2018-11-13T14:15:52.014Z,2.30
2018-11-13T14:18:20.949Z,2.53
2018-11-13T14:20:49.500Z,2.77
2018-11-13T14:23:18.013Z,2.63
2018-11-13T14:25:46.527Z,2.70
2018-11-13T14:28:15.289Z,2.50
2018-11-13T14:30:43.766Z,2.33
2018-11-13T14:33:12.956Z,2.70
2018-11-13T14:35:41.460Z,2.70
2018-11-13T14:38:09.955Z,2.47
2018-11-13T14:40:40.646Z,2.43
2018-11-13T14:43:10.285Z,2.60
2018-11-13T14:45:38.781Z,2.73
2018-11-13T14:48:07.911Z,3.00
2018-11-13T14:50:37.249Z,3.00
2018-11-13T14:53:06.420Z,2.80
2018-11-13T14:55:36.649Z,3.37
2018-11-13T14:58:06.247Z,3.20
2018-11-13T15:00:36.075Z,3.23
2018-11-13T15:03:05.673Z,3.33
2018-11-13T15:05:34.710Z,2.93
2018-11-13T15:08:04.695Z,2.93
2018-11-13T15:10:36.963Z,2.90
2018-11-13T15:13:06.025Z,3.03
2018-11-13T15:15:34.630Z,3.23
2018-11-13T15:18:03.133Z,3.53
2018-11-13T15:20:32.011Z,3.80
2018-11-13T15:23:00.705Z,3.03
2018-11-13T15:25:29.261Z,2.90
2018-11-13T15:27:57.939Z,3.30
2018-11-13T15:30:28.334Z,2.97
2018-11-13T15:32:59.524Z,2.60
2018-11-13T15:35:28.146Z,2.77
2018-11-13T15:37:56.705Z,3.13
2018-11-13T15:40:26.547Z,2.73
2018-11-13T15:42:55.146Z,3.03
2018-11-13T15:45:23.688Z,2.90
2018-11-13T15:47:53.192Z,2.90
2018-11-13T15:50:23.316Z,3.03
2018-11-13T15:52:51.832Z,3.27
2018-11-13T15:55:20.424Z,2.67
2018-11-13T15:57:49.363Z,3.80
2018-11-13T16:00:22.188Z,3.97
2018-11-13T16:02:51.116Z,3.53
2018-11-13T16:05:23.282Z,3.67
2018-11-13T16:07:53.735Z,3.30
2018-11-13T16:10:22.325Z,3.30
2018-11-13T16:12:50.830Z,3.50
2018-11-13T16:15:20.710Z,4.90
2018-11-13T16:17:50.123Z,2.90
2018-11-13T16:20:18.909Z,3.93
2018-11-13T16:22:47.725Z,4.20
2018-11-13T16:25:16.215Z,4.07
2018-11-13T16:27:44.701Z,3.30
2018-11-13T16:30:29.158Z,3.40
2018-11-13T16:32:57.606Z,2.70
2018-11-13T16:35:27.171Z,4.37
2018-11-13T16:37:56.800Z,4.40
2018-11-13T16:40:26.672Z,4.30
2018-11-13T16:42:55.785Z,4.80
2018-11-13T16:45:25.071Z,4.13
2018-11-13T16:47:54.240Z,4.57
2018-11-13T16:50:25.371Z,4.10
2018-11-13T16:52:54.228Z,4.33
2018-11-13T16:55:27.989Z,5.30
2018-11-13T16:57:57.166Z,4.70
2018-11-13T17:00:25.872Z,4.43
2018-11-13T17:02:54.456Z,5.20
2018-11-13T17:05:24.069Z,3.30
2018-11-13T17:07:52.545Z,4.07
2018-11-13T17:10:23.442Z,3.77
2018-11-13T17:12:55.596Z,3.50
2018-11-13T17:15:25.533Z,6.03
2018-11-13T17:17:55.118Z,5.57
2018-11-13T17:20:23.741Z,6.87
2018-11-13T17:22:52.606Z,5.87
2018-11-13T17:25:22.543Z,6.70
2018-11-13T17:27:52.220Z,7.03
2018-11-13T17:30:24.079Z,5.53
2018-11-13T17:32:53.312Z,5.60
2018-11-13T17:35:22.985Z,5.97
2018-11-13T17:37:52.280Z,6.97
2018-11-13T17:40:22.985Z,7.30
2018-11-13T17:42:52.800Z,7.60
2018-11-13T17:45:22.577Z,7.43
2018-11-13T17:47:53.804Z,8.17
2018-11-13T17:50:27.725Z,7.67
2018-11-13T17:52:56.525Z,7.27
2018-11-13T17:55:25.380Z,7.30
2018-11-13T17:58:01.355Z,6.90
2018-11-13T18:00:32.443Z,7.23
2018-11-13T18:03:01.665Z,7.60
2018-11-13T18:05:31.005Z,7.60
2018-11-13T18:08:00.628Z,6.17
2018-11-13T18:10:30.745Z,5.17
2018-11-13T18:12:59.335Z,5.00
2018-11-13T18:15:28.628Z,5.40
2018-11-13T18:17:57.227Z,5.07
2018-11-13T18:20:27.395Z,5.93
2018-11-13T18:22:55.953Z,6.00
2018-11-13T18:25:26.027Z,5.40
2018-11-13T18:27:55.731Z,6.00
2018-11-13T18:30:27.247Z,5.33
2018-11-13T18:32:56.319Z,4.63
2018-11-13T18:35:26.023Z,4.97
2018-11-13T18:37:55.569Z,4.97
2018-11-13T18:40:24.625Z,4.53
2018-11-13T18:42:54.103Z,5.33
2018-11-13T18:45:25.645Z,4.87
2018-11-13T18:47:54.275Z,4.70
2018-11-13T18:50:26.151Z,5.13
2018-11-13T18:52:55.261Z,4.77
2018-11-13T18:55:25.280Z,5.90
2018-11-13T18:57:54.327Z,4.97
2018-11-13T19:00:26.367Z,4.73
2018-11-13T19:02:54.905Z,5.13
2018-11-13T19:05:24.171Z,4.47
2018-11-13T19:07:52.761Z,4.83
2018-11-13T19:10:35.629Z,5.83
2018-11-13T19:13:06.418Z,5.57
2018-11-13T19:15:36.647Z,5.23
2018-11-13T19:18:05.993Z,5.77
2018-11-13T19:20:35.613Z,4.90
2018-11-13T19:23:04.197Z,5.13
2018-11-13T19:25:34.675Z,6.57
2018-11-13T19:28:04.491Z,9.27
2018-11-13T19:30:33.813Z,8.17
2018-11-13T19:33:03.041Z,8.57
2018-11-13T19:35:31.833Z,10.83
2018-11-13T19:38:00.391Z,13.37
2018-11-13T19:40:30.331Z,12.33
2018-11-13T19:43:00.299Z,10.47
2018-11-13T19:45:29.426Z,13.03
2018-11-13T19:47:58.537Z,11.60
2018-11-13T19:50:29.396Z,8.30
2018-11-13T19:52:58.631Z,6.57
2018-11-13T19:55:28.263Z,6.50
2018-11-13T19:57:57.175Z,9.70
2018-11-13T20:00:31.032Z,13.87
2018-11-13T20:03:01.523Z,11.50
2018-11-13T20:05:31.309Z,9.87
2018-11-13T20:08:00.165Z,8.83
2018-11-13T20:10:30.501Z,9.00
2018-11-13T20:13:01.514Z,8.53
2018-11-13T20:15:31.042Z,9.83
2018-11-13T20:17:59.681Z,8.53
2018-11-13T20:20:30.020Z,8.90
2018-11-13T20:22:59.914Z,7.60
2018-11-13T20:25:31.055Z,8.37
2018-11-13T20:28:00.345Z,8.23
2018-11-13T20:30:32.252Z,11.20
2018-11-13T20:33:01.031Z,11.40
2018-11-13T20:35:29.753Z,10.93
2018-11-13T20:37:59.060Z,11.47
2018-11-13T20:40:29.450Z,10.70
2018-11-13T20:42:59.470Z,10.23
2018-11-13T20:45:29.180Z,9.50
2018-11-13T20:47:57.999Z,10.73
2018-11-13T20:50:29.265Z,9.43
2018-11-13T20:52:58.305Z,9.63
2018-11-13T20:55:27.682Z,9.93
2018-11-13T20:57:56.440Z,10.40
2018-11-13T21:00:30.087Z,10.17
2018-11-13T21:02:58.915Z,10.20
2018-11-13T21:05:27.737Z,11.13
2018-11-13T21:07:56.620Z,10.67
2018-11-13T21:10:30.588Z,11.07
2018-11-13T21:12:59.889Z,10.03
2018-11-13T21:15:29.303Z,10.23
2018-11-13T21:17:57.847Z,9.90
2018-11-13T21:20:26.717Z,9.70
2018-11-13T21:22:55.154Z,9.40
2018-11-13T21:25:24.528Z,9.30
2018-11-13T21:27:54.856Z,9.77
2018-11-13T21:30:23.827Z,9.60
2018-11-13T21:32:52.899Z,8.47
2018-11-13T21:35:21.548Z,8.90
2018-11-13T21:37:51.449Z,8.73
2018-11-13T21:40:21.307Z,8.17
2018-11-13T21:42:50.629Z,9.20
2018-11-13T21:45:20.076Z,8.60
2018-11-13T21:47:48.615Z,9.07
2018-11-13T21:50:18.801Z,9.83
2018-11-13T21:52:47.316Z,10.50
2018-11-13T21:55:17.434Z,9.37
2018-11-13T21:57:46.268Z,9.63
2018-11-13T22:00:18.837Z,9.97
2018-11-13T22:02:50.704Z,9.80
2018-11-13T22:05:19.744Z,9.43
2018-11-13T22:07:48.596Z,9.23
2018-11-13T22:10:17.498Z,9.27
2018-11-13T22:12:46.407Z,8.93
2018-11-13T22:15:16.072Z,9.77
2018-11-13T22:17:44.902Z,9.10
2018-11-13T22:20:14.274Z,8.60
2018-11-13T22:22:42.800Z,8.97
2018-11-13T22:25:15.680Z,9.50
2018-11-13T22:27:45.475Z,8.23
2018-11-13T22:30:15.772Z,8.03
2018-11-13T22:32:44.573Z,8.30
2018-11-13T22:35:14.541Z,8.53
2018-11-13T22:37:43.017Z,9.03
2018-11-13T22:40:13.824Z,7.80
2018-11-13T22:42:42.435Z,7.87
2018-11-13T22:45:13.713Z,7.77
2018-11-13T22:47:42.297Z,8.50
2018-11-13T22:50:18.400Z,8.20
2018-11-13T22:52:47.782Z,8.57
2018-11-13T22:55:16.765Z,8.00
2018-11-13T22:57:46.609Z,8.20
2018-11-13T23:00:21.751Z,7.83
2018-11-13T23:02:51.660Z,9.13
2018-11-13T23:05:20.522Z,7.53
2018-11-13T23:07:49.012Z,8.73
2018-11-13T23:10:18.328Z,8.40
2018-11-13T23:12:46.930Z,8.70
2018-11-13T23:15:16.921Z,8.57
2018-11-13T23:17:45.554Z,8.20
2018-11-13T23:20:15.594Z,8.20
2018-11-13T23:22:44.154Z,8.33
2018-11-13T23:25:13.715Z,7.30
2018-11-13T23:27:42.808Z,7.57
2018-11-13T23:30:14.875Z,7.30
2018-11-13T23:32:43.539Z,7.63
2018-11-13T23:35:12.592Z,8.63
2018-11-13T23:37:41.551Z,7.87
2018-11-13T23:40:12.202Z,8.10
2018-11-13T23:42:41.094Z,8.80
2018-11-13T23:45:10.404Z,8.20
2018-11-13T23:47:38.993Z,8.53
2018-11-13T23:50:08.026Z,8.27
2018-11-13T23:52:36.643Z,8.70
2018-11-13T23:55:05.988Z,8.40
2018-11-13T23:57:34.488Z,7.90
